sensor_id;sensor_type;location;lat;lon;timestamp;pressure;altitude;pressure_sealevel;temperature;humidity
76108;BME280;64834;52.516;10.528;2023-02-22T00:00:36;101116.38;;;7.34;95.59
76108;BME280;64834;52.516;10.528;2023-02-22T00:05:34;101113.44;;;7.29;95.92
76108;BME280;64834;52.516;10.528;2023-02-22T00:08:00;101114.00;;;7.25;96.28
76108;BME280;64834;52.516;10.528;2023-02-22T00:10:25;101112.72;;;7.20;96.17
76108;BME280;64834;52.516;10.528;2023-02-22T00:12:52;101112.94;;;7.00;96.62
76108;BME280;64834;52.516;10.528;2023-02-22T00:15:21;101113.44;;;6.84;97.36
76108;BME280;64834;52.516;10.528;2023-02-22T00:17:47;101112.84;;;6.76;97.70
76108;BME280;64834;52.516;10.528;2023-02-22T00:20:14;101109.03;;;6.83;98.67
76108;BME280;64834;52.516;10.528;2023-02-22T00:22:42;101107.19;;;7.04;98.72
76108;BME280;64834;52.516;10.528;2023-02-22T00:25:08;101118.00;;;7.10;98.03
76108;BME280;64834;52.516;10.528;2023-02-22T00:27:35;101110.44;;;7.01;98.27
76108;BME280;64834;52.516;10.528;2023-02-22T00:30:01;101109.31;;;6.98;98.49
76108;BME280;64834;52.516;10.528;2023-02-22T00:32:26;101105.59;;;7.06;98.67
76108;BME280;64834;52.516;10.528;2023-02-22T00:34:53;101112.69;;;7.09;98.12
76108;BME280;64834;52.516;10.528;2023-02-22T00:37:19;101104.25;;;7.11;97.80
76108;BME280;64834;52.516;10.528;2023-02-22T00:39:48;101106.50;;;7.07;97.71
76108;BME280;64834;52.516;10.528;2023-02-22T00:42:14;101106.03;;;7.00;97.85
76108;BME280;64834;52.516;10.528;2023-02-22T00:44:40;101109.59;;;6.91;98.22
76108;BME280;64834;52.516;10.528;2023-02-22T00:47:05;101108.47;;;6.87;98.70
76108;BME280;64834;52.516;10.528;2023-02-22T00:49:31;101112.66;;;6.85;99.05
76108;BME280;64834;52.516;10.528;2023-02-22T00:51:56;101108.13;;;6.83;99.13
76108;BME280;64834;52.516;10.528;2023-02-22T00:54:21;101104.41;;;6.79;99.37
76108;BME280;64834;52.516;10.528;2023-02-22T00:56:47;101105.03;;;6.76;99.73
76108;BME280;64834;52.516;10.528;2023-02-22T00:59:14;101105.78;;;6.86;99.90
76108;BME280;64834;52.516;10.528;2023-02-22T01:01:40;101099.78;;;6.87;100.00
76108;BME280;64834;52.516;10.528;2023-02-22T01:04:07;101096.31;;;6.98;99.42
76108;BME280;64834;52.516;10.528;2023-02-22T01:06:32;101094.25;;;6.94;99.31
76108;BME280;64834;52.516;10.528;2023-02-22T01:08:58;101095.84;;;6.92;99.23
76108;BME280;64834;52.516;10.528;2023-02-22T01:11:23;101099.09;;;6.89;99.22
76108;BME280;64834;52.516;10.528;2023-02-22T01:13:48;101101.09;;;6.82;99.48
76108;BME280;64834;52.516;10.528;2023-02-22T01:16:14;101105.78;;;6.86;99.65
76108;BME280;64834;52.516;10.528;2023-02-22T01:18:39;101098.41;;;6.80;99.70
76108;BME280;64834;52.516;10.528;2023-02-22T01:21:05;101093.06;;;6.79;100.00
76108;BME280;64834;52.516;10.528;2023-02-22T01:23:30;101095.66;;;6.79;99.83
76108;BME280;64834;52.516;10.528;2023-02-22T01:25:56;101090.72;;;6.82;100.00
76108;BME280;64834;52.516;10.528;2023-02-22T01:28:22;101093.53;;;6.85;100.00
76108;BME280;64834;52.516;10.528;2023-02-22T01:30:48;101094.47;;;6.85;99.78
76108;BME280;64834;52.516;10.528;2023-02-22T01:33:14;101089.13;;;6.84;100.00
76108;BME280;64834;52.516;10.528;2023-02-22T01:35:41;101081.00;;;6.91;99.87
76108;BME280;64834;52.516;10.528;2023-02-22T01:38:07;101075.94;;;6.92;99.64
76108;BME280;64834;52.516;10.528;2023-02-22T01:40:36;101071.63;;;6.93;99.31
76108;BME280;64834;52.516;10.528;2023-02-22T01:43:15;101070.13;;;6.96;98.98
76108;BME280;64834;52.516;10.528;2023-02-22T01:45:47;101068.66;;;6.88;99.32
76108;BME280;64834;52.516;10.528;2023-02-22T01:51:08;101067.44;;;6.95;99.15
76108;BME280;64834;52.516;10.528;2023-02-22T01:53:54;101056.66;;;6.90;98.95
76108;BME280;64834;52.516;10.528;2023-02-22T01:56:22;101056.81;;;6.92;98.89
76108;BME280;64834;52.516;10.528;2023-02-22T01:58:53;101064.47;;;6.90;99.12
76108;BME280;64834;52.516;10.528;2023-02-22T02:01:22;101058.38;;;6.90;99.04
76108;BME280;64834;52.516;10.528;2023-02-22T02:03:50;101059.75;;;6.96;99.17
76108;BME280;64834;52.516;10.528;2023-02-22T02:06:17;101058.84;;;6.96;98.27
76108;BME280;64834;52.516;10.528;2023-02-22T02:08:49;101060.50;;;6.84;98.83
76108;BME280;64834;52.516;10.528;2023-02-22T02:11:21;101050.88;;;6.71;98.95
76108;BME280;64834;52.516;10.528;2023-02-22T02:13:49;101054.38;;;6.71;99.63
76108;BME280;64834;52.516;10.528;2023-02-22T02:16:16;101052.13;;;6.76;99.88
76108;BME280;64834;52.516;10.528;2023-02-22T02:18:41;101055.31;;;6.84;99.43
76108;BME280;64834;52.516;10.528;2023-02-22T02:21:27;101041.97;;;6.91;98.79
76108;BME280;64834;52.516;10.528;2023-02-22T02:24:25;101044.56;;;6.91;98.79
76108;BME280;64834;52.516;10.528;2023-02-22T02:27:04;101040.06;;;6.88;98.82
76108;BME280;64834;52.516;10.528;2023-02-22T02:35:39;101036.97;;;6.70;98.91
76108;BME280;64834;52.516;10.528;2023-02-22T02:38:31;101026.66;;;6.72;99.53
76108;BME280;64834;52.516;10.528;2023-02-22T02:43:38;101028.34;;;6.71;99.56
76108;BME280;64834;52.516;10.528;2023-02-22T02:48:53;101025.75;;;6.71;99.71
76108;BME280;64834;52.516;10.528;2023-02-22T02:51:23;101026.25;;;6.89;99.24
76108;BME280;64834;52.516;10.528;2023-02-22T02:53:51;101023.97;;;6.82;98.97
76108;BME280;64834;52.516;10.528;2023-02-22T02:56:18;101025.22;;;6.75;99.21
76108;BME280;64834;52.516;10.528;2023-02-22T02:58:53;101023.28;;;6.85;99.08
76108;BME280;64834;52.516;10.528;2023-02-22T03:01:31;101031.53;;;6.67;99.12
76108;BME280;64834;52.516;10.528;2023-02-22T03:04:32;101020.44;;;6.70;99.43
76108;BME280;64834;52.516;10.528;2023-02-22T03:12:44;101021.78;;;6.65;98.91
76108;BME280;64834;52.516;10.528;2023-02-22T03:15:26;101011.38;;;6.65;99.32
76108;BME280;64834;52.516;10.528;2023-02-22T03:18:08;101016.34;;;6.50;99.13
76108;BME280;64834;52.516;10.528;2023-02-22T03:21:18;101013.19;;;6.66;99.50
76108;BME280;64834;52.516;10.528;2023-02-22T03:23:59;100996.22;;;6.59;99.42
76108;BME280;64834;52.516;10.528;2023-02-22T03:26:33;101003.16;;;6.70;99.12
76108;BME280;64834;52.516;10.528;2023-02-22T03:29:00;101004.03;;;6.59;98.89
76108;BME280;64834;52.516;10.528;2023-02-22T03:31:50;100995.78;;;6.65;99.06
76108;BME280;64834;52.516;10.528;2023-02-22T03:34:23;101006.94;;;6.52;99.22
76108;BME280;64834;52.516;10.528;2023-02-22T03:36:58;101004.59;;;6.55;99.06
76108;BME280;64834;52.516;10.528;2023-02-22T03:39:25;101002.19;;;6.46;99.50
76108;BME280;64834;52.516;10.528;2023-02-22T03:41:56;100998.06;;;6.60;99.33
76108;BME280;64834;52.516;10.528;2023-02-22T03:44:23;101002.53;;;6.51;98.70
76108;BME280;64834;52.516;10.528;2023-02-22T03:46:53;101004.03;;;6.47;99.36
76108;BME280;64834;52.516;10.528;2023-02-22T03:49:35;101001.94;;;6.32;99.03
76108;BME280;64834;52.516;10.528;2023-02-22T03:52:02;101010.19;;;6.38;99.72
76108;BME280;64834;52.516;10.528;2023-02-22T03:54:28;101000.97;;;6.53;99.43
76108;BME280;64834;52.516;10.528;2023-02-22T03:56:57;101005.03;;;6.49;99.15
76108;BME280;64834;52.516;10.528;2023-02-22T03:59:24;101005.41;;;6.54;98.97
76108;BME280;64834;52.516;10.528;2023-02-22T04:01:55;101001.97;;;6.43;99.12
76108;BME280;64834;52.516;10.528;2023-02-22T04:04:21;101005.13;;;6.51;99.20
76108;BME280;64834;52.516;10.528;2023-02-22T04:06:47;101002.00;;;6.55;98.92
76108;BME280;64834;52.516;10.528;2023-02-22T04:09:14;101003.56;;;6.53;99.01
76108;BME280;64834;52.516;10.528;2023-02-22T04:11:39;100999.41;;;6.55;98.99
76108;BME280;64834;52.516;10.528;2023-02-22T04:14:04;101002.53;;;6.51;99.24
76108;BME280;64834;52.516;10.528;2023-02-22T04:16:30;100996.81;;;6.55;99.19
76108;BME280;64834;52.516;10.528;2023-02-22T04:18:55;100996.22;;;6.59;99.08
76108;BME280;64834;52.516;10.528;2023-02-22T04:21:20;100998.03;;;6.48;99.29
76108;BME280;64834;52.516;10.528;2023-02-22T04:23:46;100999.94;;;6.51;99.12
76108;BME280;64834;52.516;10.528;2023-02-22T04:26:11;100996.09;;;6.46;99.40
76108;BME280;64834;52.516;10.528;2023-02-22T04:28:36;100992.47;;;6.44;99.69
76108;BME280;64834;52.516;10.528;2023-02-22T04:31:02;100991.00;;;6.36;99.95
76108;BME280;64834;52.516;10.528;2023-02-22T04:33:27;100991.94;;;6.48;99.58
76108;BME280;64834;52.516;10.528;2023-02-22T04:35:52;100990.66;;;6.43;99.55
76108;BME280;64834;52.516;10.528;2023-02-22T04:38:18;100984.88;;;6.47;99.93
76108;BME280;64834;52.516;10.528;2023-02-22T04:40:43;100988.63;;;6.51;100.00
76108;BME280;64834;52.516;10.528;2023-02-22T04:43:09;100986.84;;;6.49;99.80
76108;BME280;64834;52.516;10.528;2023-02-22T04:45:34;100992.91;;;6.38;99.85
76108;BME280;64834;52.516;10.528;2023-02-22T04:48:00;100986.47;;;6.45;100.00
76108;BME280;64834;52.516;10.528;2023-02-22T04:50:25;100989.41;;;6.38;100.00
76108;BME280;64834;52.516;10.528;2023-02-22T04:52:52;100975.72;;;6.40;100.00
76108;BME280;64834;52.516;10.528;2023-02-22T04:55:17;100986.81;;;6.38;100.00
76108;BME280;64834;52.516;10.528;2023-02-22T04:57:42;100982.63;;;6.40;100.00
76108;BME280;64834;52.516;10.528;2023-02-22T05:00:08;100978.16;;;6.27;100.00
76108;BME280;64834;52.516;10.528;2023-02-22T05:02:37;100978.38;;;6.18;100.00
76108;BME280;64834;52.516;10.528;2023-02-22T05:05:03;100979.00;;;6.38;100.00
76108;BME280;64834;52.516;10.528;2023-02-22T05:07:29;100979.38;;;6.42;99.78
76108;BME280;64834;52.516;10.528;2023-02-22T05:09:54;100975.53;;;6.15;99.24
76108;BME280;64834;52.516;10.528;2023-02-22T05:12:19;100978.53;;;5.98;99.47
76108;BME280;64834;52.516;10.528;2023-02-22T05:14:45;100977.53;;;5.86;99.73
76108;BME280;64834;52.516;10.528;2023-02-22T05:17:11;100972.66;;;5.79;100.00
76108;BME280;64834;52.516;10.528;2023-02-22T05:19:36;100978.78;;;5.69;100.00
76108;BME280;64834;52.516;10.528;2023-02-22T05:22:01;100974.13;;;5.65;100.00
76108;BME280;64834;52.516;10.528;2023-02-22T05:24:26;100979.63;;;5.58;100.00
76108;BME280;64834;52.516;10.528;2023-02-22T05:26:52;100976.25;;;5.59;100.00
76108;BME280;64834;52.516;10.528;2023-02-22T05:29:18;100978.66;;;5.46;100.00
76108;BME280;64834;52.516;10.528;2023-02-22T05:31:44;100983.75;;;5.34;100.00
76108;BME280;64834;52.516;10.528;2023-02-22T05:34:09;100990.50;;;5.32;100.00
76108;BME280;64834;52.516;10.528;2023-02-22T05:36:34;100987.53;;;5.27;100.00
76108;BME280;64834;52.516;10.528;2023-02-22T05:39:00;100987.03;;;5.21;100.00
76108;BME280;64834;52.516;10.528;2023-02-22T05:41:27;100995.00;;;5.12;100.00
76108;BME280;64834;52.516;10.528;2023-02-22T05:43:52;100994.00;;;5.00;100.00
76108;BME280;64834;52.516;10.528;2023-02-22T05:46:17;100981.69;;;4.87;100.00
76108;BME280;64834;52.516;10.528;2023-02-22T05:48:42;100989.47;;;4.77;100.00
76108;BME280;64834;52.516;10.528;2023-02-22T05:51:08;100990.53;;;4.69;100.00
76108;BME280;64834;52.516;10.528;2023-02-22T05:53:34;100992.91;;;4.66;100.00
76108;BME280;64834;52.516;10.528;2023-02-22T05:56:00;100983.94;;;4.63;100.00
76108;BME280;64834;52.516;10.528;2023-02-22T05:58:26;100979.03;;;4.66;100.00
76108;BME280;64834;52.516;10.528;2023-02-22T06:00:51;100982.00;;;4.60;100.00
76108;BME280;64834;52.516;10.528;2023-02-22T06:03:16;100978.63;;;4.61;100.00
76108;BME280;64834;52.516;10.528;2023-02-22T06:05:42;100974.25;;;4.60;100.00
76108;BME280;64834;52.516;10.528;2023-02-22T06:08:07;100978.25;;;4.56;100.00
76108;BME280;64834;52.516;10.528;2023-02-22T06:10:32;100977.72;;;4.60;100.00
76108;BME280;64834;52.516;10.528;2023-02-22T06:12:59;100974.09;;;4.79;100.00
76108;BME280;64834;52.516;10.528;2023-02-22T06:15:25;100979.72;;;4.95;100.00
76108;BME280;64834;52.516;10.528;2023-02-22T06:17:52;100982.03;;;5.12;100.00
76108;BME280;64834;52.516;10.528;2023-02-22T06:20:20;100984.63;;;5.02;100.00
76108;BME280;64834;52.516;10.528;2023-02-22T06:22:47;100979.69;;;5.16;100.00
76108;BME280;64834;52.516;10.528;2023-02-22T06:25:15;100971.91;;;5.16;100.00
76108;BME280;64834;52.516;10.528;2023-02-22T06:27:41;100980.72;;;5.18;100.00
76108;BME280;64834;52.516;10.528;2023-02-22T06:30:07;100963.88;;;5.12;100.00
76108;BME280;64834;52.516;10.528;2023-02-22T06:32:33;100973.56;;;5.15;100.00
76108;BME280;64834;52.516;10.528;2023-02-22T06:34:58;100964.84;;;5.25;100.00
76108;BME280;64834;52.516;10.528;2023-02-22T06:37:23;100959.66;;;5.25;100.00
76108;BME280;64834;52.516;10.528;2023-02-22T06:39:49;100960.34;;;5.22;100.00
76108;BME280;64834;52.516;10.528;2023-02-22T06:42:14;100966.97;;;5.19;100.00
76108;BME280;64834;52.516;10.528;2023-02-22T06:44:39;100971.22;;;5.28;100.00
76108;BME280;64834;52.516;10.528;2023-02-22T06:47:05;100972.88;;;5.28;100.00
76108;BME280;64834;52.516;10.528;2023-02-22T06:49:30;100972.13;;;5.29;100.00
76108;BME280;64834;52.516;10.528;2023-02-22T06:51:55;100965.34;;;5.31;100.00
76108;BME280;64834;52.516;10.528;2023-02-22T06:54:22;100970.91;;;5.35;100.00
76108;BME280;64834;52.516;10.528;2023-02-22T06:56:47;100968.66;;;5.40;100.00
76108;BME280;64834;52.516;10.528;2023-02-22T06:59:13;100963.72;;;5.53;100.00
76108;BME280;64834;52.516;10.528;2023-02-22T07:01:40;100965.88;;;5.81;99.85
76108;BME280;64834;52.516;10.528;2023-02-22T07:04:06;100961.59;;;6.03;98.60
76108;BME280;64834;52.516;10.528;2023-02-22T07:06:31;100960.78;;;6.26;97.34
76108;BME280;64834;52.516;10.528;2023-02-22T07:08:56;100962.94;;;6.32;96.95
76108;BME280;64834;52.516;10.528;2023-02-22T07:11:22;100964.84;;;6.34;96.80
76108;BME280;64834;52.516;10.528;2023-02-22T07:13:47;100969.91;;;6.55;96.53
76108;BME280;64834;52.516;10.528;2023-02-22T07:16:12;100963.47;;;6.61;95.89
76108;BME280;64834;52.516;10.528;2023-02-22T07:18:38;100969.47;;;6.84;95.32
76108;BME280;64834;52.516;10.528;2023-02-22T07:21:04;100968.78;;;6.74;95.32
76108;BME280;64834;52.516;10.528;2023-02-22T07:23:29;100971.16;;;6.71;95.40
76108;BME280;64834;52.516;10.528;2023-02-22T07:25:55;100969.00;;;6.66;96.05
76108;BME280;64834;52.516;10.528;2023-02-22T07:28:20;100972.75;;;6.69;95.97
76108;BME280;64834;52.516;10.528;2023-02-22T07:30:46;100969.25;;;6.69;95.85
76108;BME280;64834;52.516;10.528;2023-02-22T07:33:11;100975.81;;;6.75;95.82
76108;BME280;64834;52.516;10.528;2023-02-22T07:35:45;100966.38;;;6.66;95.41
76108;BME280;64834;52.516;10.528;2023-02-22T07:38:13;100969.47;;;6.60;95.97
76108;BME280;64834;52.516;10.528;2023-02-22T07:40:40;100963.22;;;6.58;96.51
76108;BME280;64834;52.516;10.528;2023-02-22T07:45:44;100961.75;;;6.62;96.40
76108;BME280;64834;52.516;10.528;2023-02-22T07:48:10;100958.28;;;6.61;96.77
76108;BME280;64834;52.516;10.528;2023-02-22T07:50:36;100952.47;;;6.65;96.41
76108;BME280;64834;52.516;10.528;2023-02-22T07:53:04;100949.22;;;6.68;96.47
76108;BME280;64834;52.516;10.528;2023-02-22T07:55:31;100955.91;;;6.76;96.26
76108;BME280;64834;52.516;10.528;2023-02-22T07:57:59;100948.78;;;6.97;95.72
76108;BME280;64834;52.516;10.528;2023-02-22T08:00:43;100948.66;;;7.07;95.25
76108;BME280;64834;52.516;10.528;2023-02-22T08:03:11;100949.22;;;7.15;94.89
76108;BME280;64834;52.516;10.528;2023-02-22T08:05:38;100944.44;;;7.33;94.40
76108;BME280;64834;52.516;10.528;2023-02-22T08:08:05;100946.41;;;7.60;93.50
76108;BME280;64834;52.516;10.528;2023-02-22T08:10:31;100946.78;;;7.53;93.51
76108;BME280;64834;52.516;10.528;2023-02-22T08:12:56;100940.00;;;7.55;93.20
76108;BME280;64834;52.516;10.528;2023-02-22T08:15:29;100946.22;;;7.45;93.33
76108;BME280;64834;52.516;10.528;2023-02-22T08:17:55;100942.28;;;7.39;93.53
76108;BME280;64834;52.516;10.528;2023-02-22T08:20:21;100942.28;;;7.39;93.42
76108;BME280;64834;52.516;10.528;2023-02-22T08:22:47;100942.16;;;7.49;93.33
76108;BME280;64834;52.516;10.528;2023-02-22T08:25:14;100943.81;;;7.60;92.75
76108;BME280;64834;52.516;10.528;2023-02-22T08:27:40;100938.59;;;7.60;92.39
76108;BME280;64834;52.516;10.528;2023-02-22T08:30:06;100940.75;;;7.66;92.57
76108;BME280;64834;52.516;10.528;2023-02-22T08:32:32;100942.97;;;7.73;93.00
76108;BME280;64834;52.516;10.528;2023-02-22T08:34:57;100939.22;;;7.81;92.54
76108;BME280;64834;52.516;10.528;2023-02-22T08:37:23;100937.31;;;7.78;92.17
76108;BME280;64834;52.516;10.528;2023-02-22T08:39:48;100942.50;;;7.78;91.75
76108;BME280;64834;52.516;10.528;2023-02-22T08:42:13;100932.94;;;7.91;91.96
76108;BME280;64834;52.516;10.528;2023-02-22T08:44:39;100935.78;;;7.94;92.13
76108;BME280;64834;52.516;10.528;2023-02-22T08:47:05;100943.31;;;8.02;91.16
76108;BME280;64834;52.516;10.528;2023-02-22T08:49:30;100936.69;;;8.19;91.07
76108;BME280;64834;52.516;10.528;2023-02-22T08:51:56;100940.50;;;8.24;90.54
76108;BME280;64834;52.516;10.528;2023-02-22T08:54:21;100935.00;;;8.33;90.17
76108;BME280;64834;52.516;10.528;2023-02-22T08:56:47;100929.59;;;8.30;89.56
76108;BME280;64834;52.516;10.528;2023-02-22T08:59:12;100934.00;;;8.31;89.80
76108;BME280;64834;52.516;10.528;2023-02-22T09:01:38;100931.72;;;8.35;89.55
76108;BME280;64834;52.516;10.528;2023-02-22T09:04:03;100933.31;;;8.33;88.97
76108;BME280;64834;52.516;10.528;2023-02-22T09:06:29;100930.44;;;8.42;89.41
76108;BME280;64834;52.516;10.528;2023-02-22T09:08:54;100934.59;;;8.52;88.78
76108;BME280;64834;52.516;10.528;2023-02-22T09:11:20;100923.66;;;8.57;88.37
76108;BME280;64834;52.516;10.528;2023-02-22T09:13:45;100931.81;;;8.62;88.73
76108;BME280;64834;52.516;10.528;2023-02-22T09:16:11;100932.41;;;8.71;88.78
76108;BME280;64834;52.516;10.528;2023-02-22T09:18:36;100923.59;;;8.82;87.93
76108;BME280;64834;52.516;10.528;2023-02-22T09:21:03;100918.78;;;8.88;87.48
76108;BME280;64834;52.516;10.528;2023-02-22T09:23:29;100915.16;;;9.00;87.46
76108;BME280;64834;52.516;10.528;2023-02-22T09:25:54;100922.38;;;9.04;86.88
76108;BME280;64834;52.516;10.528;2023-02-22T09:28:20;100912.56;;;9.13;86.53
76108;BME280;64834;52.516;10.528;2023-02-22T09:30:45;100904.38;;;9.22;86.02
76108;BME280;64834;52.516;10.528;2023-02-22T09:33:14;100903.84;;;9.40;85.56
76108;BME280;64834;52.516;10.528;2023-02-22T09:35:41;100908.69;;;9.76;84.60
76108;BME280;64834;52.516;10.528;2023-02-22T09:38:11;100898.09;;;9.87;83.96
76108;BME280;64834;52.516;10.528;2023-02-22T09:40:40;100906.88;;;10.03;82.28
76108;BME280;64834;52.516;10.528;2023-02-22T09:51:38;100896.38;;;10.31;80.28
76108;BME280;64834;52.516;10.528;2023-02-22T09:54:15;100893.66;;;10.29;79.84
76108;BME280;64834;52.516;10.528;2023-02-22T09:56:46;100884.59;;;10.37;79.52
76108;BME280;64834;52.516;10.528;2023-02-22T09:59:18;100889.78;;;10.67;80.52
76108;BME280;64834;52.516;10.528;2023-02-22T10:01:48;100877.41;;;10.79;78.76
76108;BME280;64834;52.516;10.528;2023-02-22T10:04:22;100880.03;;;10.94;78.46
76108;BME280;64834;52.516;10.528;2023-02-22T10:09:21;100860.25;;;10.84;76.67
76108;BME280;64834;52.516;10.528;2023-02-22T10:12:29;100866.88;;;11.08;77.09
76108;BME280;64834;52.516;10.528;2023-02-22T10:15:11;100870.94;;;11.34;76.26
76108;BME280;64834;52.516;10.528;2023-02-22T10:18:08;100866.88;;;11.56;75.79
76108;BME280;64834;52.516;10.528;2023-02-22T10:20:51;100866.47;;;11.32;74.61
76108;BME280;64834;52.516;10.528;2023-02-22T10:23:27;100864.78;;;11.18;75.16
76108;BME280;64834;52.516;10.528;2023-02-22T10:26:13;100861.72;;;11.10;76.49
76108;BME280;64834;52.516;10.528;2023-02-22T10:28:52;100862.69;;;11.27;75.16
76108;BME280;64834;52.516;10.528;2023-02-22T10:31:27;100855.81;;;11.45;75.77
76108;BME280;64834;52.516;10.528;2023-02-22T10:33:58;100858.19;;;11.41;74.78
76108;BME280;64834;52.516;10.528;2023-02-22T10:36:25;100855.88;;;11.30;73.99
76108;BME280;64834;52.516;10.528;2023-02-22T10:39:19;100858.72;;;11.19;74.88
76108;BME280;64834;52.516;10.528;2023-02-22T10:41:51;100851.66;;;11.18;75.02
76108;BME280;64834;52.516;10.528;2023-02-22T10:44:19;100853.94;;;11.43;75.14
76108;BME280;64834;52.516;10.528;2023-02-22T10:46:45;100849.09;;;11.34;74.19
76108;BME280;64834;52.516;10.528;2023-02-22T10:49:17;100848.13;;;11.32;74.24
76108;BME280;64834;52.516;10.528;2023-02-22T10:51:47;100848.13;;;11.32;74.18
76108;BME280;64834;52.516;10.528;2023-02-22T10:54:17;100847.44;;;11.36;74.41
76108;BME280;64834;52.516;10.528;2023-02-22T10:56:49;100844.44;;;11.61;73.64
76108;BME280;64834;52.516;10.528;2023-02-22T10:59:32;100845.09;;;11.73;73.11
76108;BME280;64834;52.516;10.528;2023-02-22T11:01:59;100850.94;;;11.84;72.74
76108;BME280;64834;52.516;10.528;2023-02-22T11:04:26;100851.00;;;11.69;72.44
76108;BME280;64834;52.516;10.528;2023-02-22T11:07:29;100841.25;;;11.50;73.95
76108;BME280;64834;52.516;10.528;2023-02-22T11:10:00;100843.94;;;11.68;74.09
76108;BME280;64834;52.516;10.528;2023-02-22T11:12:32;100841.09;;;11.64;72.68
76108;BME280;64834;52.516;10.528;2023-02-22T11:17:42;100838.56;;;11.65;73.22
76108;BME280;64834;52.516;10.528;2023-02-22T11:20:24;100830.94;;;11.53;73.61
76108;BME280;64834;52.516;10.528;2023-02-22T11:22:55;100831.50;;;11.48;73.71
76108;BME280;64834;52.516;10.528;2023-02-22T11:25:25;100839.19;;;11.61;73.02
76108;BME280;64834;52.516;10.528;2023-02-22T11:27:51;100823.47;;;11.77;72.09
76108;BME280;64834;52.516;10.528;2023-02-22T11:30:28;100829.91;;;11.82;72.09
76108;BME280;64834;52.516;10.528;2023-02-22T11:38:14;100815.47;;;11.91;72.98
76108;BME280;64834;52.516;10.528;2023-02-22T11:40:40;100809.13;;;12.03;73.13
76108;BME280;64834;52.516;10.528;2023-02-22T11:43:13;100801.13;;;12.18;71.87
76108;BME280;64834;52.516;10.528;2023-02-22T11:45:55;100796.53;;;11.96;71.26
76108;BME280;64834;52.516;10.528;2023-02-22T11:48:23;100797.19;;;11.92;72.30
76108;BME280;64834;52.516;10.528;2023-02-22T11:50:57;100787.38;;;12.06;72.00
76108;BME280;64834;52.516;10.528;2023-02-22T11:56:24;100786.94;;;11.97;71.56
76108;BME280;64834;52.516;10.528;2023-02-22T11:59:13;100776.44;;;11.97;71.72
76108;BME280;64834;52.516;10.528;2023-02-22T12:02:13;100769.53;;;11.99;71.86
76108;BME280;64834;52.516;10.528;2023-02-22T12:05:01;100771.03;;;11.94;71.69
76108;BME280;64834;52.516;10.528;2023-02-22T12:13:39;100759.59;;;12.09;71.31
76108;BME280;64834;52.516;10.528;2023-02-22T12:16:15;100752.09;;;12.17;72.11
76108;BME280;64834;52.516;10.528;2023-02-22T12:22:27;100741.88;;;12.39;71.28
76108;BME280;64834;52.516;10.528;2023-02-22T12:25:02;100743.59;;;12.39;70.96
76108;BME280;64834;52.516;10.528;2023-02-22T12:30:25;100739.53;;;12.46;71.32
76108;BME280;64834;52.516;10.528;2023-02-22T12:32:55;100732.25;;;12.40;70.93
76108;BME280;64834;52.516;10.528;2023-02-22T12:35:26;100732.75;;;12.51;70.58
76108;BME280;64834;52.516;10.528;2023-02-22T12:40:42;100732.31;;;12.59;69.45
76108;BME280;64834;52.516;10.528;2023-02-22T12:45:40;100733.00;;;12.92;70.45
76108;BME280;64834;52.516;10.528;2023-02-22T12:48:32;100733.97;;;12.94;69.43
76108;BME280;64834;52.516;10.528;2023-02-22T12:54:12;100720.66;;;12.90;69.74
76108;BME280;64834;52.516;10.528;2023-02-22T12:56:52;100720.31;;;13.02;69.64
76108;BME280;64834;52.516;10.528;2023-02-22T12:59:30;100715.50;;;12.93;69.96
76108;BME280;64834;52.516;10.528;2023-02-22T13:02:10;100719.81;;;12.91;69.88
76108;BME280;64834;52.516;10.528;2023-02-22T13:04:36;100717.53;;;12.99;70.11
76108;BME280;64834;52.516;10.528;2023-02-22T13:07:15;100709.72;;;13.00;69.00
76108;BME280;64834;52.516;10.528;2023-02-22T13:10:09;100708.28;;;12.69;70.03
76108;BME280;64834;52.516;10.528;2023-02-22T13:13:13;100710.41;;;12.77;70.65
76108;BME280;64834;52.516;10.528;2023-02-22T13:15:52;100704.06;;;12.91;69.88
76108;BME280;64834;52.516;10.528;2023-02-22T13:18:38;100702.44;;;12.94;70.40
76108;BME280;64834;52.516;10.528;2023-02-22T13:21:33;100695.91;;;13.04;69.74
76108;BME280;64834;52.516;10.528;2023-02-22T13:24:18;100691.59;;;12.87;70.06
76108;BME280;64834;52.516;10.528;2023-02-22T13:27:00;100694.84;;;13.01;69.69
76108;BME280;64834;52.516;10.528;2023-02-22T13:29:37;100680.03;;;13.20;70.88
76108;BME280;64834;52.516;10.528;2023-02-22T13:35:07;100680.50;;;13.31;70.40
76108;BME280;64834;52.516;10.528;2023-02-22T13:38:00;100686.84;;;13.17;70.14
76108;BME280;64834;52.516;10.528;2023-02-22T13:43:24;100680.72;;;13.36;70.64
76108;BME280;64834;52.516;10.528;2023-02-22T13:48:53;100673.75;;;13.18;70.80
76108;BME280;64834;52.516;10.528;2023-02-22T13:51:46;100680.03;;;13.20;70.92
76108;BME280;64834;52.516;10.528;2023-02-22T13:54:30;100671.56;;;13.08;71.44
76108;BME280;64834;52.516;10.528;2023-02-22T13:56:58;100670.69;;;13.27;71.69
76108;BME280;64834;52.516;10.528;2023-02-22T13:59:33;100668.13;;;13.09;71.15
76108;BME280;64834;52.516;10.528;2023-02-22T14:02:01;100658.91;;;13.00;71.72
76108;BME280;64834;52.516;10.528;2023-02-22T14:06:58;100668.84;;;13.07;71.73
76108;BME280;64834;52.516;10.528;2023-02-22T14:09:46;100665.94;;;13.01;72.27
76108;BME280;64834;52.516;10.528;2023-02-22T14:17:39;100656.34;;;12.82;72.18
76108;BME280;64834;52.516;10.528;2023-02-22T14:22:41;100646.47;;;12.76;72.10
76108;BME280;64834;52.516;10.528;2023-02-22T14:27:57;100651.09;;;12.82;72.47
76108;BME280;64834;52.516;10.528;2023-02-22T14:30:28;100649.16;;;12.78;72.12